Ironwood, Michigan
Current Conditions -  °F | °C
As of 6:35 PM on Thursday 18 Dec 2014 (Local Time) from KIWD Reporting Station
Overcast Overcast  
Wind Chill: 19°   Ceiling: 2500
Heat Index: 19°   Visibility: 10mi
Dew Point: 18°   Wind: 3mph
Humidity: 93%   Direction: 80°E
Pressure: 30.21"   Gusts: NA
Location:  46.46°N, 90.16°W
Report Text: KIWD 190035Z AUTO 08003KT 10SM OVC025 M07/M08 A3021 RMK AO1
Loading
Personal Weather Stations






























Interactive Weather Map New forecast layout! Learn more

10-Day Weather Forecast

Advertisements
Track Severe Weather on mobile